sensor_id;sensor_type;location;lat;lon;timestamp;temperature;humidity
8402;DHT22;4238;48.404;9.498;2022-12-24T00:01:28;8.80;99.90
8402;DHT22;4238;48.404;9.498;2022-12-24T00:03:55;8.70;99.90
8402;DHT22;4238;48.404;9.498;2022-12-24T00:06:23;8.70;99.90
8402;DHT22;4238;48.404;9.498;2022-12-24T00:08:50;8.70;99.90
8402;DHT22;4238;48.404;9.498;2022-12-24T00:11:19;8.70;99.90
8402;DHT22;4238;48.404;9.498;2022-12-24T00:13:46;8.70;99.90
8402;DHT22;4238;48.404;9.498;2022-12-24T00:16:13;8.60;99.90
8402;DHT22;4238;48.404;9.498;2022-12-24T00:18:40;8.60;99.90
8402;DHT22;4238;48.404;9.498;2022-12-24T00:21:08;8.60;99.90
8402;DHT22;4238;48.404;9.498;2022-12-24T00:23:35;8.70;99.90
8402;DHT22;4238;48.404;9.498;2022-12-24T00:26:02;8.70;99.90
8402;DHT22;4238;48.404;9.498;2022-12-24T00:28:31;8.70;99.90
8402;DHT22;4238;48.404;9.498;2022-12-24T00:30:58;8.60;99.90
8402;DHT22;4238;48.404;9.498;2022-12-24T00:33:24;8.70;99.90
8402;DHT22;4238;48.404;9.498;2022-12-24T00:35:52;8.60;99.90
8402;DHT22;4238;48.404;9.498;2022-12-24T00:38:19;8.60;99.90
8402;DHT22;4238;48.404;9.498;2022-12-24T00:40:46;8.60;99.90
8402;DHT22;4238;48.404;9.498;2022-12-24T00:43:13;8.60;99.90
8402;DHT22;4238;48.404;9.498;2022-12-24T00:45:41;8.60;99.90
8402;DHT22;4238;48.404;9.498;2022-12-24T00:48:08;8.60;99.90
8402;DHT22;4238;48.404;9.498;2022-12-24T00:50:35;8.60;99.90
8402;DHT22;4238;48.404;9.498;2022-12-24T00:53:01;8.60;99.90
8402;DHT22;4238;48.404;9.498;2022-12-24T00:55:28;8.60;99.90
8402;DHT22;4238;48.404;9.498;2022-12-24T00:57:55;8.60;99.90
8402;DHT22;4238;48.404;9.498;2022-12-24T01:00:22;8.50;99.90
8402;DHT22;4238;48.404;9.498;2022-12-24T01:02:50;8.50;99.90
8402;DHT22;4238;48.404;9.498;2022-12-24T01:05:17;8.50;99.90
8402;DHT22;4238;48.404;9.498;2022-12-24T01:07:46;8.40;99.90
8402;DHT22;4238;48.404;9.498;2022-12-24T01:10:14;8.40;99.90
8402;DHT22;4238;48.404;9.498;2022-12-24T01:12:42;8.40;99.90
8402;DHT22;4238;48.404;9.498;2022-12-24T01:15:11;8.30;99.90
8402;DHT22;4238;48.404;9.498;2022-12-24T01:17:39;8.30;99.90
8402;DHT22;4238;48.404;9.498;2022-12-24T01:20:12;8.30;99.90
8402;DHT22;4238;48.404;9.498;2022-12-24T01:22:39;8.30;99.90
8402;DHT22;4238;48.404;9.498;2022-12-24T01:25:06;8.30;99.90
8402;DHT22;4238;48.404;9.498;2022-12-24T01:27:33;8.20;99.90
8402;DHT22;4238;48.404;9.498;2022-12-24T01:30:00;8.20;99.90
8402;DHT22;4238;48.404;9.498;2022-12-24T01:32:27;8.20;99.90
8402;DHT22;4238;48.404;9.498;2022-12-24T01:34:54;8.30;99.90
8402;DHT22;4238;48.404;9.498;2022-12-24T01:37:22;8.20;99.90
8402;DHT22;4238;48.404;9.498;2022-12-24T01:39:49;8.20;99.90
8402;DHT22;4238;48.404;9.498;2022-12-24T01:42:18;8.20;99.90
8402;DHT22;4238;48.404;9.498;2022-12-24T01:45:44;8.30;99.90
8402;DHT22;4238;48.404;9.498;2022-12-24T01:48:16;8.30;99.90
8402;DHT22;4238;48.404;9.498;2022-12-24T01:50:45;8.20;99.90
8402;DHT22;4238;48.404;9.498;2022-12-24T01:53:15;8.20;99.90
8402;DHT22;4238;48.404;9.498;2022-12-24T01:55:43;8.20;99.90
8402;DHT22;4238;48.404;9.498;2022-12-24T01:58:12;8.10;99.90
8402;DHT22;4238;48.404;9.498;2022-12-24T02:00:40;8.20;99.90
8402;DHT22;4238;48.404;9.498;2022-12-24T02:03:07;8.10;99.90
8402;DHT22;4238;48.404;9.498;2022-12-24T02:05:37;8.10;99.90
8402;DHT22;4238;48.404;9.498;2022-12-24T02:08:07;8.00;99.90
8402;DHT22;4238;48.404;9.498;2022-12-24T02:10:37;8.10;99.90
8402;DHT22;4238;48.404;9.498;2022-12-24T02:13:04;8.00;99.90
8402;DHT22;4238;48.404;9.498;2022-12-24T02:15:38;8.00;99.90
8402;DHT22;4238;48.404;9.498;2022-12-24T02:18:13;7.90;99.90
8402;DHT22;4238;48.404;9.498;2022-12-24T02:21:03;7.90;99.90
8402;DHT22;4238;48.404;9.498;2022-12-24T02:23:55;7.90;99.90
8402;DHT22;4238;48.404;9.498;2022-12-24T02:26:46;7.90;99.90
8402;DHT22;4238;48.404;9.498;2022-12-24T02:29:33;7.80;99.90
8402;DHT22;4238;48.404;9.498;2022-12-24T02:32:08;7.80;99.90
8402;DHT22;4238;48.404;9.498;2022-12-24T02:34:38;7.70;99.90
8402;DHT22;4238;48.404;9.498;2022-12-24T02:37:11;7.70;99.90
8402;DHT22;4238;48.404;9.498;2022-12-24T02:39:42;7.70;99.90
8402;DHT22;4238;48.404;9.498;2022-12-24T02:42:12;7.60;99.90
8402;DHT22;4238;48.404;9.498;2022-12-24T02:44:47;7.60;99.90
8402;DHT22;4238;48.404;9.498;2022-12-24T02:47:17;7.50;99.90
8402;DHT22;4238;48.404;9.498;2022-12-24T02:49:47;7.50;99.90
8402;DHT22;4238;48.404;9.498;2022-12-24T02:52:30;7.60;99.90
8402;DHT22;4238;48.404;9.498;2022-12-24T02:55:00;7.60;99.90
8402;DHT22;4238;48.404;9.498;2022-12-24T02:57:37;7.60;99.90
8402;DHT22;4238;48.404;9.498;2022-12-24T03:00:08;7.70;99.90
8402;DHT22;4238;48.404;9.498;2022-12-24T03:02:50;7.60;99.90
8402;DHT22;4238;48.404;9.498;2022-12-24T03:05:24;7.60;99.90
8402;DHT22;4238;48.404;9.498;2022-12-24T03:08:00;7.60;99.90
8402;DHT22;4238;48.404;9.498;2022-12-24T03:10:35;7.70;99.90
8402;DHT22;4238;48.404;9.498;2022-12-24T03:13:07;7.80;99.90
8402;DHT22;4238;48.404;9.498;2022-12-24T03:15:36;7.70;99.90
8402;DHT22;4238;48.404;9.498;2022-12-24T03:18:08;7.80;99.90
8402;DHT22;4238;48.404;9.498;2022-12-24T03:20:38;7.80;99.90
8402;DHT22;4238;48.404;9.498;2022-12-24T03:23:06;7.80;99.90
8402;DHT22;4238;48.404;9.498;2022-12-24T03:25:34;7.80;99.90
8402;DHT22;4238;48.404;9.498;2022-12-24T03:28:05;7.80;99.90
8402;DHT22;4238;48.404;9.498;2022-12-24T03:30:33;7.80;99.90
8402;DHT22;4238;48.404;9.498;2022-12-24T03:33:00;7.80;99.90
8402;DHT22;4238;48.404;9.498;2022-12-24T03:35:28;7.80;99.90
8402;DHT22;4238;48.404;9.498;2022-12-24T03:37:55;7.80;99.90
8402;DHT22;4238;48.404;9.498;2022-12-24T03:40:22;7.80;99.90
8402;DHT22;4238;48.404;9.498;2022-12-24T03:42:49;7.70;99.90
8402;DHT22;4238;48.404;9.498;2022-12-24T03:45:16;7.70;99.90
8402;DHT22;4238;48.404;9.498;2022-12-24T03:47:43;7.80;99.90
8402;DHT22;4238;48.404;9.498;2022-12-24T03:50:10;7.80;99.90
8402;DHT22;4238;48.404;9.498;2022-12-24T03:52:38;7.70;99.90
8402;DHT22;4238;48.404;9.498;2022-12-24T03:55:05;7.70;99.90
8402;DHT22;4238;48.404;9.498;2022-12-24T03:57:32;7.70;99.90
8402;DHT22;4238;48.404;9.498;2022-12-24T03:59:59;7.70;99.90
8402;DHT22;4238;48.404;9.498;2022-12-24T04:02:26;7.70;99.90
8402;DHT22;4238;48.404;9.498;2022-12-24T04:04:53;7.70;99.90
8402;DHT22;4238;48.404;9.498;2022-12-24T04:07:20;7.70;99.90
8402;DHT22;4238;48.404;9.498;2022-12-24T04:09:48;7.80;99.90
8402;DHT22;4238;48.404;9.498;2022-12-24T04:12:15;7.80;99.90
8402;DHT22;4238;48.404;9.498;2022-12-24T04:14:42;7.80;99.90
8402;DHT22;4238;48.404;9.498;2022-12-24T04:17:09;7.80;99.90
8402;DHT22;4238;48.404;9.498;2022-12-24T04:19:36;7.80;99.90
8402;DHT22;4238;48.404;9.498;2022-12-24T04:22:03;7.80;99.90
8402;DHT22;4238;48.404;9.498;2022-12-24T04:24:29;7.80;99.90
8402;DHT22;4238;48.404;9.498;2022-12-24T04:26:58;7.90;99.90
8402;DHT22;4238;48.404;9.498;2022-12-24T04:29:25;7.90;99.90
8402;DHT22;4238;48.404;9.498;2022-12-24T04:31:52;7.90;99.90
8402;DHT22;4238;48.404;9.498;2022-12-24T04:34:18;7.90;99.90
8402;DHT22;4238;48.404;9.498;2022-12-24T04:36:45;7.90;99.90
8402;DHT22;4238;48.404;9.498;2022-12-24T04:39:12;7.90;99.90
8402;DHT22;4238;48.404;9.498;2022-12-24T04:41:39;7.90;99.90
8402;DHT22;4238;48.404;9.498;2022-12-24T04:44:08;7.90;99.90
8402;DHT22;4238;48.404;9.498;2022-12-24T04:46:36;7.80;99.90
8402;DHT22;4238;48.404;9.498;2022-12-24T04:49:03;7.80;99.90
8402;DHT22;4238;48.404;9.498;2022-12-24T04:51:29;7.80;99.90
8402;DHT22;4238;48.404;9.498;2022-12-24T04:53:56;7.80;99.90
8402;DHT22;4238;48.404;9.498;2022-12-24T04:56:25;7.80;99.90
8402;DHT22;4238;48.404;9.498;2022-12-24T04:58:52;7.90;99.90
8402;DHT22;4238;48.404;9.498;2022-12-24T05:01:22;7.90;99.90
8402;DHT22;4238;48.404;9.498;2022-12-24T05:03:50;7.80;99.90
8402;DHT22;4238;48.404;9.498;2022-12-24T05:06:19;7.80;99.90
8402;DHT22;4238;48.404;9.498;2022-12-24T05:08:46;7.80;99.90
8402;DHT22;4238;48.404;9.498;2022-12-24T05:11:13;7.80;99.90
8402;DHT22;4238;48.404;9.498;2022-12-24T05:13:41;7.80;99.90
8402;DHT22;4238;48.404;9.498;2022-12-24T05:16:08;7.80;99.90
8402;DHT22;4238;48.404;9.498;2022-12-24T05:18:37;7.80;99.90
8402;DHT22;4238;48.404;9.498;2022-12-24T05:21:07;7.80;99.90
8402;DHT22;4238;48.404;9.498;2022-12-24T05:23:34;7.80;99.90
8402;DHT22;4238;48.404;9.498;2022-12-24T05:26:26;7.70;99.90
8402;DHT22;4238;48.404;9.498;2022-12-24T05:28:55;7.70;99.90
8402;DHT22;4238;48.404;9.498;2022-12-24T05:31:23;7.70;99.90
8402;DHT22;4238;48.404;9.498;2022-12-24T05:33:53;7.70;99.90
8402;DHT22;4238;48.404;9.498;2022-12-24T05:36:20;7.70;99.90
8402;DHT22;4238;48.404;9.498;2022-12-24T05:38:47;7.70;99.90
8402;DHT22;4238;48.404;9.498;2022-12-24T05:41:14;7.70;99.90
8402;DHT22;4238;48.404;9.498;2022-12-24T05:43:41;7.70;99.90
8402;DHT22;4238;48.404;9.498;2022-12-24T05:46:10;7.70;99.90
8402;DHT22;4238;48.404;9.498;2022-12-24T05:48:38;7.70;99.90
8402;DHT22;4238;48.404;9.498;2022-12-24T05:51:08;7.70;99.90
8402;DHT22;4238;48.404;9.498;2022-12-24T05:53:36;7.70;99.90
8402;DHT22;4238;48.404;9.498;2022-12-24T05:56:04;7.60;99.90
8402;DHT22;4238;48.404;9.498;2022-12-24T05:58:32;7.60;99.90
8402;DHT22;4238;48.404;9.498;2022-12-24T06:01:00;7.70;99.90
8402;DHT22;4238;48.404;9.498;2022-12-24T06:03:28;7.70;99.90
8402;DHT22;4238;48.404;9.498;2022-12-24T06:05:59;7.70;99.90
8402;DHT22;4238;48.404;9.498;2022-12-24T06:08:28;7.70;99.90
8402;DHT22;4238;48.404;9.498;2022-12-24T06:10:56;7.50;99.90
8402;DHT22;4238;48.404;9.498;2022-12-24T06:13:23;7.50;99.90
8402;DHT22;4238;48.404;9.498;2022-12-24T06:15:53;7.50;99.90
8402;DHT22;4238;48.404;9.498;2022-12-24T06:18:19;7.50;99.90
8402;DHT22;4238;48.404;9.498;2022-12-24T06:20:49;7.50;99.90
8402;DHT22;4238;48.404;9.498;2022-12-24T06:23:16;7.50;99.90
8402;DHT22;4238;48.404;9.498;2022-12-24T06:25:44;7.40;99.90
8402;DHT22;4238;48.404;9.498;2022-12-24T06:28:11;7.50;99.90
8402;DHT22;4238;48.404;9.498;2022-12-24T06:30:38;7.50;99.90
8402;DHT22;4238;48.404;9.498;2022-12-24T06:33:05;7.40;99.90
8402;DHT22;4238;48.404;9.498;2022-12-24T06:35:33;7.40;99.90
8402;DHT22;4238;48.404;9.498;2022-12-24T06:38:00;7.40;99.90
8402;DHT22;4238;48.404;9.498;2022-12-24T06:40:26;7.50;99.90
8402;DHT22;4238;48.404;9.498;2022-12-24T06:42:55;7.50;99.90
8402;DHT22;4238;48.404;9.498;2022-12-24T06:45:22;7.50;99.90
8402;DHT22;4238;48.404;9.498;2022-12-24T06:47:49;7.50;99.90
8402;DHT22;4238;48.404;9.498;2022-12-24T06:50:16;7.40;99.90
8402;DHT22;4238;48.404;9.498;2022-12-24T06:52:43;7.40;99.90
8402;DHT22;4238;48.404;9.498;2022-12-24T06:55:09;7.40;99.90
8402;DHT22;4238;48.404;9.498;2022-12-24T06:57:36;7.40;99.90
8402;DHT22;4238;48.404;9.498;2022-12-24T07:00:07;7.40;99.90
8402;DHT22;4238;48.404;9.498;2022-12-24T07:02:34;7.30;99.90
8402;DHT22;4238;48.404;9.498;2022-12-24T07:05:01;7.30;99.90
8402;DHT22;4238;48.404;9.498;2022-12-24T07:07:28;7.30;99.90
8402;DHT22;4238;48.404;9.498;2022-12-24T07:09:55;7.30;99.90
8402;DHT22;4238;48.404;9.498;2022-12-24T07:12:22;7.30;99.90
8402;DHT22;4238;48.404;9.498;2022-12-24T07:14:49;7.20;99.90
8402;DHT22;4238;48.404;9.498;2022-12-24T07:17:17;7.20;99.90
8402;DHT22;4238;48.404;9.498;2022-12-24T07:19:44;7.20;99.90
8402;DHT22;4238;48.404;9.498;2022-12-24T07:22:11;7.20;99.90
8402;DHT22;4238;48.404;9.498;2022-12-24T07:24:37;7.20;99.90
8402;DHT22;4238;48.404;9.498;2022-12-24T07:27:04;7.20;99.90
8402;DHT22;4238;48.404;9.498;2022-12-24T07:29:31;7.10;99.90
8402;DHT22;4238;48.404;9.498;2022-12-24T07:31:58;7.10;99.90
8402;DHT22;4238;48.404;9.498;2022-12-24T07:34:26;7.10;99.90
8402;DHT22;4238;48.404;9.498;2022-12-24T07:36:53;7.10;99.90
8402;DHT22;4238;48.404;9.498;2022-12-24T07:39:20;7.10;99.90
8402;DHT22;4238;48.404;9.498;2022-12-24T07:41:47;7.20;99.90
8402;DHT22;4238;48.404;9.498;2022-12-24T07:44:15;7.20;99.90
8402;DHT22;4238;48.404;9.498;2022-12-24T07:46:42;7.30;99.90
8402;DHT22;4238;48.404;9.498;2022-12-24T07:49:09;7.30;99.90
8402;DHT22;4238;48.404;9.498;2022-12-24T07:51:38;7.30;99.90
8402;DHT22;4238;48.404;9.498;2022-12-24T07:54:04;7.30;97.60
8402;DHT22;4238;48.404;9.498;2022-12-24T07:56:31;7.30;99.90
8402;DHT22;4238;48.404;9.498;2022-12-24T07:58:58;7.40;99.90
8402;DHT22;4238;48.404;9.498;2022-12-24T08:01:25;7.40;97.70
8402;DHT22;4238;48.404;9.498;2022-12-24T08:03:52;7.40;96.20
8402;DHT22;4238;48.404;9.498;2022-12-24T08:06:19;7.50;97.30
8402;DHT22;4238;48.404;9.498;2022-12-24T08:08:48;7.50;95.80
8402;DHT22;4238;48.404;9.498;2022-12-24T08:11:15;7.50;95.90
8402;DHT22;4238;48.404;9.498;2022-12-24T08:13:42;7.50;96.00
8402;DHT22;4238;48.404;9.498;2022-12-24T08:16:09;7.50;94.70
8402;DHT22;4238;48.404;9.498;2022-12-24T08:18:36;7.50;97.50
8402;DHT22;4238;48.404;9.498;2022-12-24T08:21:05;7.50;99.50
8402;DHT22;4238;48.404;9.498;2022-12-24T08:23:32;7.50;96.50
8402;DHT22;4238;48.404;9.498;2022-12-24T08:26:00;7.60;96.60
8402;DHT22;4238;48.404;9.498;2022-12-24T08:28:28;7.60;95.00
8402;DHT22;4238;48.404;9.498;2022-12-24T08:30:54;7.60;95.40
8402;DHT22;4238;48.404;9.498;2022-12-24T08:33:21;7.70;94.10
8402;DHT22;4238;48.404;9.498;2022-12-24T08:35:49;7.70;92.90
8402;DHT22;4238;48.404;9.498;2022-12-24T08:38:16;7.80;92.40
8402;DHT22;4238;48.404;9.498;2022-12-24T08:40:44;7.80;93.40
8402;DHT22;4238;48.404;9.498;2022-12-24T08:43:15;7.80;82.60
8402;DHT22;4238;48.404;9.498;2022-12-24T08:45:42;7.90;91.10
8402;DHT22;4238;48.404;9.498;2022-12-24T08:48:09;7.90;92.00
8402;DHT22;4238;48.404;9.498;2022-12-24T08:50:38;8.00;91.70
8402;DHT22;4238;48.404;9.498;2022-12-24T08:53:06;7.90;91.40
8402;DHT22;4238;48.404;9.498;2022-12-24T08:55:32;8.00;91.10
8402;DHT22;4238;48.404;9.498;2022-12-24T08:57:59;8.00;91.40
8402;DHT22;4238;48.404;9.498;2022-12-24T09:00:28;8.10;92.70
8402;DHT22;4238;48.404;9.498;2022-12-24T09:02:55;8.10;78.90
8402;DHT22;4238;48.404;9.498;2022-12-24T09:05:22;8.20;80.30
8402;DHT22;4238;48.404;9.498;2022-12-24T09:07:50;8.10;69.80
8402;DHT22;4238;48.404;9.498;2022-12-24T09:10:17;8.00;75.20
8402;DHT22;4238;48.404;9.498;2022-12-24T09:12:44;8.00;81.40
8402;DHT22;4238;48.404;9.498;2022-12-24T09:15:11;8.00;82.30
8402;DHT22;4238;48.404;9.498;2022-12-24T09:17:40;8.10;78.50
8402;DHT22;4238;48.404;9.498;2022-12-24T09:20:08;8.20;83.40
8402;DHT22;4238;48.404;9.498;2022-12-24T09:22:36;8.40;76.30
8402;DHT22;4238;48.404;9.498;2022-12-24T09:25:04;8.50;55.70
8402;DHT22;4238;48.404;9.498;2022-12-24T09:27:31;8.80;54.80
8402;DHT22;4238;48.404;9.498;2022-12-24T09:29:58;9.00;47.00
8402;DHT22;4238;48.404;9.498;2022-12-24T09:32:25;9.10;37.20
8402;DHT22;4238;48.404;9.498;2022-12-24T09:34:53;9.00;47.10
8402;DHT22;4238;48.404;9.498;2022-12-24T09:37:20;9.40;21.50
8402;DHT22;4238;48.404;9.498;2022-12-24T09:39:47;9.60;8.10
8402;DHT22;4238;48.404;9.498;2022-12-24T09:42:24;9.60;19.40
8402;DHT22;4238;48.404;9.498;2022-12-24T09:44:57;9.90;21.30
8402;DHT22;4238;48.404;9.498;2022-12-24T09:47:31;10.10;7.40
8402;DHT22;4238;48.404;9.498;2022-12-24T09:50:01;10.30;2.30
8402;DHT22;4238;48.404;9.498;2022-12-24T09:52:32;10.50;1.00
8402;DHT22;4238;48.404;9.498;2022-12-24T09:55:06;10.40;1.00
8402;DHT22;4238;48.404;9.498;2022-12-24T09:57:39;10.30;1.00
8402;DHT22;4238;48.404;9.498;2022-12-24T10:00:17;10.30;1.00
8402;DHT22;4238;48.404;9.498;2022-12-24T10:02:45;10.20;1.00
8402;DHT22;4238;48.404;9.498;2022-12-24T10:05:14;10.10;1.00
8402;DHT22;4238;48.404;9.498;2022-12-24T10:07:48;10.00;1.00
8402;DHT22;4238;48.404;9.498;2022-12-24T10:10:25;10.00;5.40
8402;DHT22;4238;48.404;9.498;2022-12-24T10:13:01;10.00;5.10
8402;DHT22;4238;48.404;9.498;2022-12-24T10:15:33;9.80;10.90
8402;DHT22;4238;48.404;9.498;2022-12-24T10:18:19;9.80;8.50
8402;DHT22;4238;48.404;9.498;2022-12-24T10:20:54;9.60;9.70
8402;DHT22;4238;48.404;9.498;2022-12-24T10:23:26;9.60;10.90
8402;DHT22;4238;48.404;9.498;2022-12-24T10:26:03;9.60;22.50
8402;DHT22;4238;48.404;9.498;2022-12-24T10:28:35;9.60;23.30
8402;DHT22;4238;48.404;9.498;2022-12-24T10:31:06;9.70;20.50
8402;DHT22;4238;48.404;9.498;2022-12-24T10:33:37;9.70;21.10
8402;DHT22;4238;48.404;9.498;2022-12-24T10:36:10;9.80;10.70
8402;DHT22;4238;48.404;9.498;2022-12-24T10:38:38;9.80;24.20
8402;DHT22;4238;48.404;9.498;2022-12-24T10:41:06;9.70;19.80
8402;DHT22;4238;48.404;9.498;2022-12-24T10:43:35;9.70;26.60
8402;DHT22;4238;48.404;9.498;2022-12-24T10:46:09;9.60;27.60
8402;DHT22;4238;48.404;9.498;2022-12-24T10:48:42;9.60;31.00
8402;DHT22;4238;48.404;9.498;2022-12-24T10:51:17;9.60;26.20
8402;DHT22;4238;48.404;9.498;2022-12-24T10:53:47;9.50;26.30
8402;DHT22;4238;48.404;9.498;2022-12-24T10:56:16;9.40;38.70
8402;DHT22;4238;48.404;9.498;2022-12-24T10:58:45;9.40;36.40
8402;DHT22;4238;48.404;9.498;2022-12-24T11:01:12;9.40;45.00
8402;DHT22;4238;48.404;9.498;2022-12-24T11:03:39;9.40;38.80
8402;DHT22;4238;48.404;9.498;2022-12-24T11:06:11;9.40;44.50
8402;DHT22;4238;48.404;9.498;2022-12-24T11:08:40;9.30;37.90
8402;DHT22;4238;48.404;9.498;2022-12-24T11:11:08;9.50;43.50
8402;DHT22;4238;48.404;9.498;2022-12-24T11:13:38;9.50;33.70
8402;DHT22;4238;48.404;9.498;2022-12-24T11:16:13;9.50;41.60
8402;DHT22;4238;48.404;9.498;2022-12-24T11:18:46;9.50;46.80
8402;DHT22;4238;48.404;9.498;2022-12-24T11:21:20;9.50;42.60
8402;DHT22;4238;48.404;9.498;2022-12-24T11:23:50;9.50;47.40
8402;DHT22;4238;48.404;9.498;2022-12-24T11:26:24;9.40;42.90
8402;DHT22;4238;48.404;9.498;2022-12-24T11:29:13;9.50;43.10
8402;DHT22;4238;48.404;9.498;2022-12-24T11:31:40;9.50;48.10
8402;DHT22;4238;48.404;9.498;2022-12-24T11:34:24;9.50;45.50
8402;DHT22;4238;48.404;9.498;2022-12-24T11:36:55;9.50;37.50
8402;DHT22;4238;48.404;9.498;2022-12-24T11:39:38;9.50;41.10
8402;DHT22;4238;48.404;9.498;2022-12-24T11:42:05;9.60;47.00
8402;DHT22;4238;48.404;9.498;2022-12-24T11:44:32;9.70;33.00
8402;DHT22;4238;48.404;9.498;2022-12-24T11:46:59;9.80;33.30
8402;DHT22;4238;48.404;9.498;2022-12-24T11:49:27;9.80;33.20
8402;DHT22;4238;48.404;9.498;2022-12-24T11:52:09;9.90;24.10
8402;DHT22;4238;48.404;9.498;2022-12-24T11:54:42;9.90;20.50
8402;DHT22;4238;48.404;9.498;2022-12-24T11:57:12;9.90;33.90
8402;DHT22;4238;48.404;9.498;2022-12-24T11:59:42;9.90;30.10
8402;DHT22;4238;48.404;9.498;2022-12-24T12:02:16;9.80;24.70
8402;DHT22;4238;48.404;9.498;2022-12-24T12:04:47;9.80;30.60
8402;DHT22;4238;48.404;9.498;2022-12-24T12:07:19;9.80;36.90
8402;DHT22;4238;48.404;9.498;2022-12-24T12:09:49;9.70;38.70
8402;DHT22;4238;48.404;9.498;2022-12-24T12:12:22;9.80;43.80
8402;DHT22;4238;48.404;9.498;2022-12-24T12:14:53;9.80;40.20
8402;DHT22;4238;48.404;9.498;2022-12-24T12:17:28;9.80;42.30
8402;DHT22;4238;48.404;9.498;2022-12-24T12:19:59;9.90;39.70
8402;DHT22;4238;48.404;9.498;2022-12-24T12:22:33;9.90;38.90
8402;DHT22;4238;48.404;9.498;2022-12-24T12:25:02;9.90;37.80
8402;DHT22;4238;48.404;9.498;2022-12-24T12:27:32;9.90;40.50
8402;DHT22;4238;48.404;9.498;2022-12-24T12:30:04;9.90;38.80
8402;DHT22;4238;48.404;9.498;2022-12-24T12:32:40;9.80;37.80
8402;DHT22;4238;48.404;9.498;2022-12-24T12:35:16;9.70;44.90
8402;DHT22;4238;48.404;9.498;2022-12-24T12:37:53;9.80;55.80
8402;DHT22;4238;48.404;9.498;2022-12-24T12:40:24;9.80;61.70
8402;DHT22;4238;48.404;9.498;2022-12-24T12:43:00;9.80;52.90
8402;DHT22;4238;48.404;9.498;2022-12-24T12:45:39;10.00;50.70
8402;DHT22;4238;48.404;9.498;2022-12-24T12:48:21;10.00;42.20
8402;DHT22;4238;48.404;9.498;2022-12-24T12:50:55;10.00;39.60
8402;DHT22;4238;48.404;9.498;2022-12-24T12:53:55;10.10;25.90
8402;DHT22;4238;48.404;9.498;2022-12-24T12:56:29;10.00;22.30
8402;DHT22;4238;48.404;9.498;2022-12-24T12:59:01;9.90;25.80
8402;DHT22;4238;48.404;9.498;2022-12-24T13:01:40;9.90;30.80
8402;DHT22;4238;48.404;9.498;2022-12-24T13:04:29;9.80;27.10
8402;DHT22;4238;48.404;9.498;2022-12-24T13:07:17;9.80;44.60
8402;DHT22;4238;48.404;9.498;2022-12-24T13:10:01;9.60;36.60
8402;DHT22;4238;48.404;9.498;2022-12-24T13:12:45;9.70;45.00
8402;DHT22;4238;48.404;9.498;2022-12-24T13:15:51;9.80;44.80
8402;DHT22;4238;48.404;9.498;2022-12-24T13:18:41;9.80;44.70
8402;DHT22;4238;48.404;9.498;2022-12-24T13:21:17;9.80;50.80
8402;DHT22;4238;48.404;9.498;2022-12-24T13:23:44;9.90;53.50
8402;DHT22;4238;48.404;9.498;2022-12-24T13:26:13;9.80;47.60
8402;DHT22;4238;48.404;9.498;2022-12-24T13:28:41;9.90;59.80
8402;DHT22;4238;48.404;9.498;2022-12-24T13:31:27;9.90;53.70
8402;DHT22;4238;48.404;9.498;2022-12-24T13:34:00;9.90;53.80
8402;DHT22;4238;48.404;9.498;2022-12-24T13:37:01;9.90;54.60
8402;DHT22;4238;48.404;9.498;2022-12-24T13:40:12;9.90;55.10
8402;DHT22;4238;48.404;9.498;2022-12-24T13:42:50;9.80;63.20
8402;DHT22;4238;48.404;9.498;2022-12-24T13:45:43;9.80;70.90
8402;DHT22;4238;48.404;9.498;2022-12-24T13:48:27;9.80;73.50
8402;DHT22;4238;48.404;9.498;2022-12-24T13:50:55;9.70;61.40
8402;DHT22;4238;48.404;9.498;2022-12-24T13:53:27;9.60;78.60
8402;DHT22;4238;48.404;9.498;2022-12-24T13:56:01;9.60;79.10
8402;DHT22;4238;48.404;9.498;2022-12-24T13:58:31;9.60;82.70
8402;DHT22;4238;48.404;9.498;2022-12-24T14:01:01;9.60;78.90
8402;DHT22;4238;48.404;9.498;2022-12-24T14:03:30;9.60;80.30
8402;DHT22;4238;48.404;9.498;2022-12-24T14:06:00;9.50;76.30
8402;DHT22;4238;48.404;9.498;2022-12-24T14:08:32;9.50;83.00
8402;DHT22;4238;48.404;9.498;2022-12-24T14:11:07;9.50;79.10
8402;DHT22;4238;48.404;9.498;2022-12-24T14:14:09;9.50;88.30
8402;DHT22;4238;48.404;9.498;2022-12-24T14:16:48;9.60;86.60
8402;DHT22;4238;48.404;9.498;2022-12-24T14:19:19;9.60;87.70
8402;DHT22;4238;48.404;9.498;2022-12-24T14:21:53;9.60;89.20
8402;DHT22;4238;48.404;9.498;2022-12-24T14:24:24;9.60;89.00
8402;DHT22;4238;48.404;9.498;2022-12-24T14:26:53;9.60;89.90
8402;DHT22;4238;48.404;9.498;2022-12-24T14:29:26;9.50;80.00
8402;DHT22;4238;48.404;9.498;2022-12-24T14:31:55;9.40;83.50
8402;DHT22;4238;48.404;9.498;2022-12-24T14:34:23;9.30;84.10
8402;DHT22;4238;48.404;9.498;2022-12-24T14:36:53;9.20;89.50
8402;DHT22;4238;48.404;9.498;2022-12-24T14:39:24;9.00;94.20
8402;DHT22;4238;48.404;9.498;2022-12-24T14:42:01;8.90;98.80
8402;DHT22;4238;48.404;9.498;2022-12-24T14:44:39;8.80;99.90
8402;DHT22;4238;48.404;9.498;2022-12-24T14:47:18;8.70;99.90
8402;DHT22;4238;48.404;9.498;2022-12-24T14:50:23;8.50;99.90
8402;DHT22;4238;48.404;9.498;2022-12-24T14:52:58;8.30;99.90
8402;DHT22;4238;48.404;9.498;2022-12-24T14:55:29;8.40;99.90
8402;DHT22;4238;48.404;9.498;2022-12-24T14:58:20;8.40;99.90
8402;DHT22;4238;48.404;9.498;2022-12-24T15:00:51;8.20;99.90
8402;DHT22;4238;48.404;9.498;2022-12-24T15:03:21;8.20;99.90
8402;DHT22;4238;48.404;9.498;2022-12-24T15:05:50;8.20;99.90
8402;DHT22;4238;48.404;9.498;2022-12-24T15:08:22;8.10;99.90
8402;DHT22;4238;48.404;9.498;2022-12-24T15:10:53;7.90;99.90
8402;DHT22;4238;48.404;9.498;2022-12-24T15:13:25;7.90;99.90
8402;DHT22;4238;48.404;9.498;2022-12-24T15:15:56;7.90;99.90
8402;DHT22;4238;48.404;9.498;2022-12-24T15:18:26;7.80;99.90
8402;DHT22;4238;48.404;9.498;2022-12-24T15:20:57;7.80;99.90
8402;DHT22;4238;48.404;9.498;2022-12-24T15:23:27;7.70;99.90
8402;DHT22;4238;48.404;9.498;2022-12-24T15:26:19;7.80;99.90
8402;DHT22;4238;48.404;9.498;2022-12-24T15:28:47;7.60;99.90
8402;DHT22;4238;48.404;9.498;2022-12-24T15:31:17;7.50;99.90
8402;DHT22;4238;48.404;9.498;2022-12-24T15:33:44;7.60;99.90
8402;DHT22;4238;48.404;9.498;2022-12-24T15:36:13;7.50;99.90
8402;DHT22;4238;48.404;9.498;2022-12-24T15:38:42;7.50;99.90
8402;DHT22;4238;48.404;9.498;2022-12-24T15:41:17;7.60;99.90
8402;DHT22;4238;48.404;9.498;2022-12-24T15:43:46;7.60;99.90
8402;DHT22;4238;48.404;9.498;2022-12-24T15:46:20;7.60;99.90
8402;DHT22;4238;48.404;9.498;2022-12-24T15:48:48;7.60;99.90
8402;DHT22;4238;48.404;9.498;2022-12-24T15:51:23;7.50;99.90
8402;DHT22;4238;48.404;9.498;2022-12-24T15:53:55;7.50;99.90
8402;DHT22;4238;48.404;9.498;2022-12-24T15:56:31;7.50;99.90
8402;DHT22;4238;48.404;9.498;2022-12-24T15:59:29;7.40;99.90
8402;DHT22;4238;48.404;9.498;2022-12-24T16:05:35;7.40;99.90
8402;DHT22;4238;48.404;9.498;2022-12-24T16:08:24;7.50;99.90
8402;DHT22;4238;48.404;9.498;2022-12-24T16:11:11;7.50;99.90
8402;DHT22;4238;48.404;9.498;2022-12-24T16:13:42;7.50;99.90
8402;DHT22;4238;48.404;9.498;2022-12-24T16:16:11;7.40;99.90
8402;DHT22;4238;48.404;9.498;2022-12-24T16:18:42;7.40;99.90
8402;DHT22;4238;48.404;9.498;2022-12-24T16:21:23;7.30;99.90
8402;DHT22;4238;48.404;9.498;2022-12-24T16:23:53;7.30;99.90
8402;DHT22;4238;48.404;9.498;2022-12-24T16:26:20;7.30;99.90
8402;DHT22;4238;48.404;9.498;2022-12-24T16:28:47;7.30;99.90
8402;DHT22;4238;48.404;9.498;2022-12-24T16:31:16;7.30;99.90
8402;DHT22;4238;48.404;9.498;2022-12-24T16:33:44;7.30;99.90
8402;DHT22;4238;48.404;9.498;2022-12-24T16:36:11;7.30;99.90
8402;DHT22;4238;48.404;9.498;2022-12-24T16:38:40;7.20;99.90
8402;DHT22;4238;48.404;9.498;2022-12-24T16:41:23;7.20;99.90
8402;DHT22;4238;48.404;9.498;2022-12-24T16:43:50;7.20;99.90
8402;DHT22;4238;48.404;9.498;2022-12-24T16:46:16;7.10;99.90